createdAt,value
2023-02-22T00:00:15.090Z,983.54
2023-02-22T00:01:15.401Z,983.60
2023-02-22T00:02:15.088Z,983.55
2023-02-22T00:03:15.131Z,983.55
2023-02-22T00:04:15.044Z,983.53
2023-02-22T00:05:15.044Z,983.52
2023-02-22T00:06:15.025Z,983.51
2023-02-22T00:07:15.002Z,983.51
2023-02-22T00:08:14.998Z,983.55
2023-02-22T00:09:14.984Z,983.52
2023-02-22T00:10:14.981Z,983.51
2023-02-22T00:11:15.399Z,983.51
2023-02-22T00:12:14.945Z,983.53
2023-02-22T00:13:14.958Z,983.46
2023-02-22T00:14:14.943Z,983.45
2023-02-22T00:15:14.923Z,983.46
2023-02-22T00:16:14.944Z,983.43
2023-02-22T00:17:14.924Z,983.46
2023-02-22T00:18:14.894Z,983.47
2023-02-22T00:19:14.923Z,983.49
2023-02-22T00:20:15.258Z,983.45
2023-02-22T00:21:15.180Z,983.48
2023-02-22T00:22:14.848Z,983.53
2023-02-22T00:23:14.851Z,983.46
2023-02-22T00:24:14.836Z,983.48
2023-02-22T00:25:14.863Z,983.46
2023-02-22T00:26:14.809Z,983.39
2023-02-22T00:27:14.808Z,983.43
2023-02-22T00:28:14.783Z,983.40
2023-02-22T00:29:14.770Z,983.41
2023-02-22T00:30:14.873Z,983.37
2023-02-22T00:31:15.342Z,983.38
2023-02-22T00:32:14.869Z,983.33
2023-02-22T00:33:14.729Z,983.29
2023-02-22T00:34:14.712Z,983.36
2023-02-22T00:35:14.719Z,983.33
2023-02-22T00:36:14.719Z,983.32
2023-02-22T00:37:14.687Z,983.37
2023-02-22T00:38:14.671Z,983.33
2023-02-22T00:39:14.692Z,983.35
2023-02-22T00:40:14.648Z,983.31
2023-02-22T00:41:15.160Z,983.35
2023-02-22T00:42:14.628Z,983.32
2023-02-22T00:43:14.645Z,983.30
2023-02-22T00:44:14.655Z,983.29
2023-02-22T00:45:14.625Z,983.31
2023-02-22T00:46:14.923Z,983.31
2023-02-22T00:47:14.773Z,983.38
2023-02-22T00:48:14.589Z,983.34
2023-02-22T00:49:14.570Z,983.34
2023-02-22T00:50:14.560Z,983.32
2023-02-22T00:51:14.961Z,983.37
2023-02-22T00:52:14.740Z,983.33
2023-02-22T00:53:14.538Z,983.40
2023-02-22T00:54:14.518Z,983.31
2023-02-22T00:55:14.511Z,983.29
2023-02-22T00:56:14.485Z,983.32
2023-02-22T00:57:14.490Z,983.30
2023-02-22T00:58:14.479Z,983.31
2023-02-22T00:59:14.469Z,983.27
2023-02-22T01:00:14.451Z,983.24
2023-02-22T01:01:14.935Z,983.23
2023-02-22T01:02:14.433Z,983.22
2023-02-22T01:03:14.422Z,983.16
2023-02-22T01:04:14.422Z,983.15
2023-02-22T01:05:14.391Z,983.17
2023-02-22T01:06:14.392Z,983.17
2023-02-22T01:07:14.383Z,983.18
2023-02-22T01:08:14.381Z,983.15
2023-02-22T01:09:14.352Z,983.11
2023-02-22T01:10:14.341Z,983.13
2023-02-22T01:11:14.536Z,983.11
2023-02-22T01:12:14.323Z,983.16
2023-02-22T01:13:14.319Z,983.08
2023-02-22T01:14:14.293Z,983.11
2023-02-22T01:15:14.283Z,983.08
2023-02-22T01:16:14.299Z,983.05
2023-02-22T01:17:14.273Z,983.09
2023-02-22T01:18:14.272Z,983.12
2023-02-22T01:19:14.252Z,983.13
2023-02-22T01:20:14.229Z,983.11
2023-02-22T01:21:14.492Z,983.12
2023-02-22T01:22:14.367Z,983.12
2023-02-22T01:23:14.309Z,983.12
2023-02-22T01:24:14.290Z,983.02
2023-02-22T01:25:14.190Z,983.03
2023-02-22T01:26:14.173Z,983.05
2023-02-22T01:27:14.195Z,982.99
2023-02-22T01:28:14.160Z,982.99
2023-02-22T01:29:14.158Z,983.02
2023-02-22T01:30:14.204Z,982.95
2023-02-22T01:31:14.184Z,983.04
2023-02-22T01:32:14.127Z,983.01
2023-02-22T01:33:14.103Z,983.02
2023-02-22T01:34:14.073Z,983.04
2023-02-22T01:35:14.090Z,983.03
2023-02-22T01:36:14.214Z,983.00
2023-02-22T01:37:14.143Z,983.03
2023-02-22T01:38:14.052Z,983.07
2023-02-22T01:39:14.037Z,982.99
2023-02-22T01:40:14.011Z,983.00
2023-02-22T01:41:14.090Z,983.01
2023-02-22T01:42:13.992Z,982.94
2023-02-22T01:43:14.003Z,982.94
2023-02-22T01:44:13.999Z,982.91
2023-02-22T01:45:13.963Z,982.89
2023-02-22T01:46:14.012Z,982.93
2023-02-22T01:47:13.951Z,982.91
2023-02-22T01:48:13.943Z,982.93
2023-02-22T01:49:13.921Z,982.93
2023-02-22T01:50:13.921Z,982.89
2023-02-22T01:51:13.974Z,982.91
2023-02-22T01:52:13.881Z,982.87
2023-02-22T01:53:13.916Z,982.87
2023-02-22T01:54:13.888Z,982.83
2023-02-22T01:55:13.858Z,982.85
2023-02-22T01:56:13.847Z,982.79
2023-02-22T01:57:13.849Z,982.83
2023-02-22T01:58:13.811Z,982.76
2023-02-22T01:59:13.821Z,982.76
2023-02-22T02:00:13.820Z,982.74
2023-02-22T02:01:13.800Z,982.74
2023-02-22T02:02:13.782Z,982.74
2023-02-22T02:03:13.784Z,982.68
2023-02-22T02:04:13.799Z,982.72
2023-02-22T02:05:13.816Z,982.70
2023-02-22T02:06:13.745Z,982.68
2023-02-22T02:07:13.721Z,982.67
2023-02-22T02:08:13.730Z,982.66
2023-02-22T02:09:13.711Z,982.67
2023-02-22T02:10:13.721Z,982.64
2023-02-22T02:11:13.699Z,982.62
2023-02-22T02:12:13.694Z,982.62
2023-02-22T02:13:13.659Z,982.66
2023-02-22T02:14:13.652Z,982.63
2023-02-22T02:15:13.641Z,982.61
2023-02-22T02:16:13.632Z,982.59
2023-02-22T02:17:13.636Z,982.62
2023-02-22T02:18:13.617Z,982.66
2023-02-22T02:19:13.594Z,982.59
2023-02-22T02:20:13.594Z,982.57
2023-02-22T02:21:13.667Z,982.57
2023-02-22T02:22:13.575Z,982.54
2023-02-22T02:23:13.553Z,982.56
2023-02-22T02:24:13.565Z,982.55
2023-02-22T02:25:13.524Z,982.58
2023-02-22T02:26:13.525Z,982.52
2023-02-22T02:27:13.516Z,982.52
2023-02-22T02:28:13.509Z,982.48
2023-02-22T02:29:13.496Z,982.50
2023-02-22T02:30:13.546Z,982.47
2023-02-22T02:31:13.476Z,982.48
2023-02-22T02:32:13.611Z,982.45
2023-02-22T02:33:13.447Z,982.47
2023-02-22T02:34:13.468Z,982.46
2023-02-22T02:35:13.437Z,982.48
2023-02-22T02:36:13.426Z,982.46
2023-02-22T02:37:13.411Z,982.49
2023-02-22T02:38:13.409Z,982.47
2023-02-22T02:39:13.391Z,982.44
2023-02-22T02:40:13.401Z,982.42
2023-02-22T02:41:13.371Z,982.39
2023-02-22T02:42:13.376Z,982.40
2023-02-22T02:43:13.357Z,982.40
2023-02-22T02:44:13.338Z,982.40
2023-02-22T02:45:13.335Z,982.37
2023-02-22T02:46:13.321Z,982.33
2023-02-22T02:47:13.297Z,982.32
2023-02-22T02:48:13.310Z,982.35
2023-02-22T02:49:13.279Z,982.28
2023-02-22T02:50:13.272Z,982.35
2023-02-22T02:51:13.277Z,982.29
2023-02-22T02:52:13.250Z,982.31
2023-02-22T02:53:13.240Z,982.29
2023-02-22T02:54:13.249Z,982.29
2023-02-22T02:55:13.230Z,982.27
2023-02-22T02:56:13.237Z,982.25
2023-02-22T02:57:13.189Z,982.28
2023-02-22T02:58:13.281Z,982.23
2023-02-22T02:59:13.201Z,982.26
2023-02-22T03:00:13.173Z,982.27
2023-02-22T03:01:13.228Z,982.25
2023-02-22T03:02:13.187Z,982.23
2023-02-22T03:03:13.142Z,982.15
2023-02-22T03:04:13.125Z,982.21
2023-02-22T03:05:13.136Z,982.20
2023-02-22T03:06:13.101Z,982.15
2023-02-22T03:07:13.123Z,982.21
2023-02-22T03:08:13.081Z,982.17
2023-02-22T03:09:13.078Z,982.14
2023-02-22T03:10:13.101Z,982.08
2023-02-22T03:11:13.042Z,982.11
2023-02-22T03:12:13.044Z,982.15
2023-02-22T03:13:13.022Z,982.10
2023-02-22T03:14:13.038Z,982.04
2023-02-22T03:15:13.006Z,982.08
2023-02-22T03:16:13.019Z,982.09
2023-02-22T03:17:12.984Z,982.05
2023-02-22T03:18:12.976Z,982.01
2023-02-22T03:19:13.008Z,982.02
2023-02-22T03:20:12.954Z,982.06
2023-02-22T03:21:12.934Z,981.97
2023-02-22T03:22:12.935Z,981.99
2023-02-22T03:23:12.914Z,982.02
2023-02-22T03:24:12.917Z,982.02
2023-02-22T03:25:12.926Z,982.01
2023-02-22T03:26:12.905Z,981.99
2023-02-22T03:27:12.905Z,981.98
2023-02-22T03:28:12.876Z,982.01
2023-02-22T03:29:12.863Z,981.98
2023-02-22T03:30:12.878Z,981.98
2023-02-22T03:31:12.893Z,981.95
2023-02-22T03:32:12.847Z,981.97
2023-02-22T03:33:12.817Z,981.93
2023-02-22T03:34:12.815Z,981.96
2023-02-22T03:35:12.810Z,981.96
2023-02-22T03:36:12.808Z,981.94
2023-02-22T03:37:12.787Z,981.96
2023-02-22T03:38:12.767Z,981.96
2023-02-22T03:39:12.768Z,981.92
2023-02-22T03:40:12.749Z,981.93
2023-02-22T03:41:12.738Z,981.91
2023-02-22T03:42:12.721Z,981.90
2023-02-22T03:43:12.721Z,981.96
2023-02-22T03:44:12.730Z,981.87
2023-02-22T03:45:12.699Z,981.91
2023-02-22T03:46:12.728Z,981.93
2023-02-22T03:47:12.674Z,981.97
2023-02-22T03:48:12.676Z,981.96
2023-02-22T03:49:12.649Z,981.93
2023-02-22T03:50:12.672Z,981.94
2023-02-22T03:51:13.331Z,981.98
2023-02-22T03:52:12.630Z,981.92
2023-02-22T03:53:12.610Z,982.03
2023-02-22T03:54:12.601Z,981.93
2023-02-22T03:55:12.618Z,981.92
2023-02-22T03:56:12.586Z,981.97
2023-02-22T03:57:12.585Z,981.97
2023-02-22T03:58:12.561Z,981.97
2023-02-22T03:59:12.542Z,981.96
2023-02-22T04:00:12.549Z,981.97
2023-02-22T04:01:12.522Z,981.92
2023-02-22T04:02:12.529Z,981.91
2023-02-22T04:03:12.580Z,981.92
2023-02-22T04:04:12.491Z,981.93
2023-02-22T04:05:12.479Z,981.94
2023-02-22T04:06:12.475Z,982.00
2023-02-22T04:07:12.464Z,981.93
2023-02-22T04:08:12.467Z,981.96
2023-02-22T04:09:12.430Z,981.95
2023-02-22T04:10:12.430Z,981.96
2023-02-22T04:11:12.411Z,981.95
2023-02-22T04:12:13.349Z,981.99
2023-02-22T04:13:12.410Z,981.98
2023-02-22T04:14:12.381Z,982.02
2023-02-22T04:15:12.377Z,982.01
2023-02-22T04:16:12.398Z,981.95
2023-02-22T04:17:12.363Z,982.02
2023-02-22T04:18:12.344Z,981.95
2023-02-22T04:19:12.451Z,982.00
2023-02-22T04:20:12.331Z,981.98
2023-02-22T04:21:12.301Z,982.00
2023-02-22T04:22:12.309Z,981.93
2023-02-22T04:23:12.288Z,981.88
2023-02-22T04:24:12.294Z,981.90
2023-02-22T04:25:12.262Z,981.84
2023-02-22T04:26:12.253Z,981.89
2023-02-22T04:27:12.263Z,981.87
2023-02-22T04:28:12.241Z,981.86
2023-02-22T04:29:12.248Z,981.87
2023-02-22T04:30:12.249Z,981.89
2023-02-22T04:31:12.239Z,981.90
2023-02-22T04:32:12.287Z,981.89
2023-02-22T04:33:12.180Z,981.87
2023-02-22T04:34:12.172Z,981.90
2023-02-22T04:35:12.160Z,981.83
2023-02-22T04:36:12.153Z,981.81
2023-02-22T04:37:12.133Z,981.80
2023-02-22T04:38:12.136Z,981.83
2023-02-22T04:39:12.150Z,981.83
2023-02-22T04:40:12.115Z,981.80
2023-02-22T04:41:12.096Z,981.77
2023-02-22T04:42:12.084Z,981.81
2023-02-22T04:43:12.082Z,981.80
2023-02-22T04:44:12.102Z,981.79
2023-02-22T04:45:12.053Z,981.81
2023-02-22T04:46:12.063Z,981.79
2023-02-22T04:47:12.042Z,981.76
2023-02-22T04:48:12.026Z,981.81
2023-02-22T04:49:12.016Z,981.82
2023-02-22T04:50:12.057Z,981.77
2023-02-22T04:51:11.994Z,981.77
2023-02-22T04:52:11.984Z,981.79
2023-02-22T04:53:11.975Z,981.76
2023-02-22T04:54:11.969Z,981.74
2023-02-22T04:55:11.959Z,981.76
2023-02-22T04:56:11.959Z,981.78
2023-02-22T04:57:11.938Z,981.80
2023-02-22T04:58:11.925Z,981.75
2023-02-22T04:59:11.895Z,981.82
2023-02-22T05:00:11.897Z,981.79
2023-02-22T05:01:11.912Z,981.73
2023-02-22T05:02:11.874Z,981.73
2023-02-22T05:03:11.875Z,981.76
2023-02-22T05:04:11.868Z,981.73
2023-02-22T05:05:11.845Z,981.76
2023-02-22T05:06:11.834Z,981.72
2023-02-22T05:07:11.834Z,981.75
2023-02-22T05:08:11.815Z,981.74
2023-02-22T05:09:11.798Z,981.72
2023-02-22T05:10:11.800Z,981.72
2023-02-22T05:11:11.777Z,981.67
2023-02-22T05:12:11.788Z,981.69
2023-02-22T05:13:12.012Z,981.68
2023-02-22T05:14:11.747Z,981.67
2023-02-22T05:15:11.737Z,981.68
2023-02-22T05:16:11.774Z,981.73
2023-02-22T05:17:11.717Z,981.71
2023-02-22T05:18:11.708Z,981.69
2023-02-22T05:19:11.700Z,981.64
2023-02-22T05:20:11.689Z,981.65
2023-02-22T05:21:11.670Z,981.67
2023-02-22T05:22:11.671Z,981.67
2023-02-22T05:23:11.667Z,981.66
2023-02-22T05:24:11.647Z,981.64
2023-02-22T05:25:11.627Z,981.67
2023-02-22T05:26:11.849Z,981.67
2023-02-22T05:27:11.621Z,981.65
2023-02-22T05:28:11.602Z,981.61
2023-02-22T05:29:11.586Z,981.59
2023-02-22T05:30:11.614Z,981.61
2023-02-22T05:31:11.590Z,981.62
2023-02-22T05:32:11.592Z,981.64
2023-02-22T05:33:11.546Z,981.57
2023-02-22T05:34:11.540Z,981.61
2023-02-22T05:35:11.525Z,981.59
2023-02-22T05:36:11.528Z,981.62
2023-02-22T05:37:11.508Z,981.61
2023-02-22T05:38:11.498Z,981.61
2023-02-22T05:39:11.501Z,981.59
2023-02-22T05:40:11.470Z,981.59
2023-02-22T05:41:11.462Z,981.57
2023-02-22T05:42:11.457Z,981.64
2023-02-22T05:43:11.442Z,981.57
2023-02-22T05:44:11.462Z,981.57
2023-02-22T05:45:11.422Z,981.57
2023-02-22T05:46:11.461Z,981.58
2023-02-22T05:47:11.401Z,981.59
2023-02-22T05:48:11.409Z,981.57
2023-02-22T05:49:11.403Z,981.52
2023-02-22T05:50:11.382Z,981.53
2023-02-22T05:51:11.366Z,981.58
2023-02-22T05:52:11.349Z,981.53
2023-02-22T05:53:11.333Z,981.52
2023-02-22T05:54:11.346Z,981.50
2023-02-22T05:55:11.312Z,981.52
2023-02-22T05:56:11.321Z,981.49
2023-02-22T05:57:11.293Z,981.53
2023-02-22T05:58:12.234Z,981.56
2023-02-22T05:59:11.291Z,981.51
2023-02-22T06:00:11.274Z,981.48
2023-02-22T06:01:11.251Z,981.51
2023-02-22T06:02:11.296Z,981.47
2023-02-22T06:03:11.250Z,981.50
2023-02-22T06:04:11.239Z,981.53
2023-02-22T06:05:11.435Z,981.51
2023-02-22T06:06:11.206Z,981.45
2023-02-22T06:07:11.353Z,981.49
2023-02-22T06:08:11.179Z,981.55
2023-02-22T06:09:11.161Z,981.49
2023-02-22T06:10:11.163Z,981.55
2023-02-22T06:11:11.142Z,981.52
2023-02-22T06:12:11.129Z,981.55
2023-02-22T06:13:11.148Z,981.56
2023-02-22T06:14:11.121Z,981.52
2023-02-22T06:15:11.126Z,981.50
2023-02-22T06:16:11.179Z,981.49
2023-02-22T06:17:11.220Z,981.55
2023-02-22T06:18:11.110Z,981.50
2023-02-22T06:19:11.064Z,981.51
2023-02-22T06:20:11.054Z,981.50
2023-02-22T06:21:11.052Z,981.48
2023-02-22T06:22:11.023Z,981.51
2023-02-22T06:23:11.040Z,981.54
2023-02-22T06:24:11.002Z,981.60
2023-02-22T06:25:10.990Z,981.58
2023-02-22T06:26:11.016Z,981.62
2023-02-22T06:27:10.970Z,981.60
2023-02-22T06:28:11.155Z,981.60
2023-02-22T06:29:11.091Z,981.64
2023-02-22T06:30:13.185Z,981.65
2023-02-22T06:31:10.966Z,981.66
2023-02-22T06:32:10.949Z,981.60
2023-02-22T06:33:10.910Z,981.65
2023-02-22T06:34:10.892Z,981.66
2023-02-22T06:35:10.907Z,981.66
2023-02-22T06:36:10.890Z,981.65
2023-02-22T06:37:10.885Z,981.70
2023-02-22T06:38:10.850Z,981.70
2023-02-22T06:39:10.854Z,981.68
2023-02-22T06:40:10.855Z,981.72
2023-02-22T06:41:10.823Z,981.72
2023-02-22T06:42:10.828Z,981.77
2023-02-22T06:43:10.809Z,981.72
2023-02-22T06:44:10.791Z,981.82
2023-02-22T06:45:10.831Z,981.74
2023-02-22T06:46:10.769Z,981.75
2023-02-22T06:47:10.771Z,981.78
2023-02-22T06:48:10.751Z,981.71
2023-02-22T06:49:10.752Z,981.83
2023-02-22T06:50:10.731Z,981.74
2023-02-22T06:51:10.716Z,981.76
2023-02-22T06:52:10.718Z,981.82
2023-02-22T06:53:10.691Z,981.80
2023-02-22T06:54:10.695Z,981.75
2023-02-22T06:55:10.691Z,981.74
2023-02-22T06:56:10.665Z,981.76
2023-02-22T06:57:10.661Z,981.77
2023-02-22T06:58:10.638Z,981.80
2023-02-22T06:59:10.664Z,981.79
2023-02-22T07:00:10.621Z,981.77
2023-02-22T07:01:10.633Z,981.77
2023-02-22T07:02:10.609Z,981.85
2023-02-22T07:03:10.625Z,981.80
2023-02-22T07:04:10.584Z,981.86
2023-02-22T07:05:10.578Z,981.87
2023-02-22T07:06:10.576Z,981.82
2023-02-22T07:07:10.577Z,981.86
2023-02-22T07:08:10.555Z,981.84
2023-02-22T07:09:10.540Z,981.80
2023-02-22T07:10:10.516Z,981.85
2023-02-22T07:11:10.536Z,981.82
2023-02-22T07:12:10.517Z,981.83
2023-02-22T07:13:10.487Z,981.85
2023-02-22T07:14:10.468Z,981.91
2023-02-22T07:15:10.475Z,981.87
2023-02-22T07:16:10.484Z,981.87
2023-02-22T07:17:10.447Z,981.85
2023-02-22T07:18:10.432Z,981.90
2023-02-22T07:19:11.160Z,981.90
2023-02-22T07:20:10.419Z,981.98
2023-02-22T07:21:11.977Z,981.92
2023-02-22T07:22:10.422Z,981.98
2023-02-22T07:23:10.385Z,981.95
2023-02-22T07:24:10.380Z,981.95
2023-02-22T07:25:10.378Z,981.98
2023-02-22T07:26:10.357Z,981.93
2023-02-22T07:27:10.339Z,982.02
2023-02-22T07:28:10.340Z,981.94
2023-02-22T07:29:10.324Z,981.95
2023-02-22T07:30:10.335Z,981.95
2023-02-22T07:31:10.309Z,981.92
2023-02-22T07:32:10.361Z,982.00
2023-02-22T07:33:10.331Z,981.96
2023-02-22T07:34:10.269Z,981.98
2023-02-22T07:35:10.269Z,982.02
2023-02-22T07:36:10.276Z,982.01
2023-02-22T07:37:10.232Z,981.99
2023-02-22T07:38:10.223Z,982.02
2023-02-22T07:39:10.222Z,982.01
2023-02-22T07:40:10.200Z,982.02
2023-02-22T07:41:10.210Z,982.07
2023-02-22T07:42:10.174Z,982.04
2023-02-22T07:43:10.181Z,982.07
2023-02-22T07:44:10.152Z,982.03
2023-02-22T07:45:10.163Z,982.07
2023-02-22T07:46:10.134Z,982.09
2023-02-22T07:47:10.133Z,982.09
2023-02-22T07:48:10.124Z,982.12
2023-02-22T07:49:10.104Z,982.17
2023-02-22T07:50:10.115Z,982.11
2023-02-22T07:51:10.195Z,982.17
2023-02-22T07:52:10.074Z,982.14
2023-02-22T07:53:10.064Z,982.18
2023-02-22T07:54:10.066Z,982.14
2023-02-22T07:55:10.095Z,982.11
2023-02-22T07:56:10.024Z,982.04
2023-02-22T07:57:10.031Z,982.05
2023-02-22T07:58:10.020Z,982.07
2023-02-22T07:59:10.034Z,982.06
2023-02-22T08:00:09.992Z,982.09
2023-02-22T08:01:09.985Z,982.05
2023-02-22T08:02:10.010Z,982.06
2023-02-22T08:03:09.966Z,982.03
2023-02-22T08:04:09.945Z,982.08
2023-02-22T08:05:09.956Z,982.02
2023-02-22T08:06:11.520Z,982.05
2023-02-22T08:07:09.958Z,982.09
2023-02-22T08:08:10.006Z,982.04
2023-02-22T08:09:09.927Z,982.06
2023-02-22T08:10:09.966Z,982.09
2023-02-22T08:11:09.889Z,982.03
2023-02-22T08:12:10.877Z,982.06
2023-02-22T08:13:09.865Z,982.07
2023-02-22T08:14:09.991Z,982.02
2023-02-22T08:15:09.853Z,982.02
2023-02-22T08:16:10.901Z,981.97
2023-02-22T08:17:09.868Z,981.98
2023-02-22T08:18:10.528Z,982.02
2023-02-22T08:19:09.829Z,981.99
2023-02-22T08:20:10.488Z,981.99
2023-02-22T08:21:09.828Z,982.02
2023-02-22T08:22:09.789Z,981.98
2023-02-22T08:23:09.765Z,981.96
2023-02-22T08:24:09.744Z,981.94
2023-02-22T08:25:09.737Z,982.01
2023-02-22T08:26:09.746Z,981.97
2023-02-22T08:27:09.710Z,981.97
2023-02-22T08:28:09.712Z,981.92
2023-02-22T08:29:09.689Z,981.92
2023-02-22T08:30:09.740Z,981.95
2023-02-22T08:31:09.668Z,981.96
2023-02-22T08:32:09.823Z,981.94
2023-02-22T08:33:09.706Z,981.99
2023-02-22T08:34:09.629Z,981.99
2023-02-22T08:35:09.636Z,981.95
2023-02-22T08:36:09.619Z,981.94
2023-02-22T08:37:09.603Z,981.93
2023-02-22T08:38:09.587Z,982.03
2023-02-22T08:39:09.580Z,982.00
2023-02-22T08:40:09.590Z,981.98
2023-02-22T08:41:09.559Z,981.97
2023-02-22T08:42:09.550Z,981.97
2023-02-22T08:43:09.552Z,981.91
2023-02-22T08:44:09.521Z,981.93
2023-02-22T08:45:09.519Z,982.01
2023-02-22T08:46:09.552Z,981.97
2023-02-22T08:47:09.488Z,981.95
2023-02-22T08:48:09.479Z,981.99
2023-02-22T08:49:09.487Z,982.04
2023-02-22T08:50:09.487Z,982.00
2023-02-22T08:51:09.479Z,981.98
2023-02-22T08:52:09.451Z,981.99
2023-02-22T08:53:09.452Z,981.98
2023-02-22T08:54:09.436Z,982.01
2023-02-22T08:55:09.411Z,981.99
2023-02-22T08:56:09.396Z,981.90
2023-02-22T08:57:09.393Z,981.96
2023-02-22T08:58:09.592Z,981.99
2023-02-22T08:59:09.367Z,981.98
2023-02-22T09:00:09.360Z,981.97
2023-02-22T09:01:09.386Z,982.01
2023-02-22T09:02:09.347Z,982.03
2023-02-22T09:03:09.340Z,982.02
2023-02-22T09:04:09.311Z,981.93
2023-02-22T09:05:09.319Z,981.95
2023-02-22T09:06:09.329Z,981.95
2023-02-22T09:07:09.285Z,981.95
2023-02-22T09:08:09.319Z,982.02
2023-02-22T09:09:09.258Z,981.96
2023-02-22T09:10:09.246Z,981.95
2023-02-22T09:11:09.227Z,981.92
2023-02-22T09:12:09.226Z,981.93
2023-02-22T09:13:09.229Z,981.88
2023-02-22T09:14:09.207Z,981.96
2023-02-22T09:15:09.210Z,981.91
2023-02-22T09:16:09.244Z,981.91
2023-02-22T09:17:09.168Z,981.89
2023-02-22T09:18:09.169Z,981.92
2023-02-22T09:19:09.166Z,981.95
2023-02-22T09:20:09.159Z,981.88
2023-02-22T09:21:09.208Z,981.89
2023-02-22T09:22:09.110Z,981.92
2023-02-22T09:23:10.158Z,981.90
2023-02-22T09:24:09.098Z,981.89
2023-02-22T09:25:16.748Z,981.86
2023-02-22T09:26:10.069Z,981.86
2023-02-22T09:27:09.067Z,981.87
2023-02-22T09:28:09.049Z,981.86
2023-02-22T09:29:09.041Z,981.86
2023-02-22T09:30:09.061Z,981.90
2023-02-22T09:31:09.043Z,981.88
2023-02-22T09:32:09.170Z,981.90
2023-02-22T09:33:09.262Z,981.87
2023-02-22T09:34:08.980Z,981.92
2023-02-22T09:35:08.989Z,981.88
2023-02-22T09:36:09.020Z,981.81
2023-02-22T09:37:08.957Z,981.88
2023-02-22T09:38:08.941Z,981.87
2023-02-22T09:39:08.940Z,981.85
2023-02-22T09:40:08.919Z,981.79
2023-02-22T09:41:08.930Z,981.89
2023-02-22T09:42:08.898Z,981.79
2023-02-22T09:43:08.893Z,981.82
2023-02-22T09:44:08.879Z,981.77
2023-02-22T09:45:08.883Z,981.77
2023-02-22T09:46:08.945Z,981.85
2023-02-22T09:47:08.852Z,981.75
2023-02-22T09:48:21.375Z,981.77
2023-02-22T09:49:09.855Z,981.78
2023-02-22T09:50:08.811Z,981.72
2023-02-22T09:51:08.809Z,981.72
2023-02-22T09:52:08.821Z,981.75
2023-02-22T09:53:08.781Z,981.67
2023-02-22T09:54:08.771Z,981.73
2023-02-22T09:55:08.776Z,981.73
2023-02-22T09:56:08.752Z,981.73
2023-02-22T09:57:08.741Z,981.74
2023-02-22T09:58:08.764Z,981.73
2023-02-22T09:59:08.728Z,981.69
2023-02-22T10:00:08.723Z,981.70
2023-02-22T10:01:09.249Z,981.70
2023-02-22T10:02:08.823Z,981.72
2023-02-22T10:03:08.695Z,981.66
2023-02-22T10:04:08.665Z,981.69
2023-02-22T10:05:08.742Z,981.72
2023-02-22T10:06:08.649Z,981.65
2023-02-22T10:07:08.999Z,981.69
2023-02-22T10:08:08.651Z,981.70
2023-02-22T10:09:08.616Z,981.57
2023-02-22T10:10:08.607Z,981.65
2023-02-22T10:11:08.687Z,981.61
2023-02-22T10:12:08.608Z,981.57
2023-02-22T10:13:08.574Z,981.54
2023-02-22T10:14:08.828Z,981.53
2023-02-22T10:15:08.557Z,981.57
2023-02-22T10:16:08.725Z,981.53
2023-02-22T10:17:08.536Z,981.59
2023-02-22T10:18:08.517Z,981.59
2023-02-22T10:19:09.372Z,981.50
2023-02-22T10:20:08.590Z,981.54
2023-02-22T10:21:08.494Z,981.46
2023-02-22T10:22:08.501Z,981.49
2023-02-22T10:23:08.469Z,981.52
2023-02-22T10:24:08.470Z,981.50
2023-02-22T10:25:09.706Z,981.50
2023-02-22T10:26:08.429Z,981.47
2023-02-22T10:27:08.457Z,981.52
2023-02-22T10:28:08.430Z,981.52
2023-02-22T10:29:08.409Z,981.44
2023-02-22T10:30:23.507Z,981.51
2023-02-22T10:31:09.442Z,981.45
2023-02-22T10:32:08.437Z,981.48
2023-02-22T10:33:08.364Z,981.50
2023-02-22T10:34:08.354Z,981.50
2023-02-22T10:35:08.350Z,981.43
2023-02-22T10:36:08.365Z,981.51
2023-02-22T10:37:08.328Z,981.47
2023-02-22T10:38:08.305Z,981.47
2023-02-22T10:39:08.298Z,981.44
2023-02-22T10:40:08.285Z,981.39
2023-02-22T10:41:08.297Z,981.37
2023-02-22T10:42:08.277Z,981.40
2023-02-22T10:43:08.272Z,981.40
2023-02-22T10:44:08.254Z,981.37
2023-02-22T10:45:08.237Z,981.39
2023-02-22T10:46:08.323Z,981.37
2023-02-22T10:47:08.222Z,981.39
2023-02-22T10:48:08.213Z,981.41
2023-02-22T10:49:08.192Z,981.35
2023-02-22T10:50:08.189Z,981.38
2023-02-22T10:51:08.179Z,981.38
2023-02-22T10:52:08.169Z,981.39
2023-02-22T10:53:08.150Z,981.39
2023-02-22T10:54:08.140Z,981.38
2023-02-22T10:55:15.320Z,981.33
2023-02-22T10:56:09.220Z,981.34
2023-02-22T10:57:08.140Z,981.29
2023-02-22T10:58:08.104Z,981.28
2023-02-22T10:59:08.085Z,981.29
2023-02-22T11:00:08.080Z,981.22
2023-02-22T11:01:08.083Z,981.21
2023-02-22T11:02:08.059Z,981.28
2023-02-22T11:03:08.060Z,981.26
2023-02-22T11:04:08.045Z,981.24
2023-02-22T11:05:08.072Z,981.19
2023-02-22T11:06:08.013Z,981.22
2023-02-22T11:07:08.001Z,981.21
2023-02-22T11:08:08.001Z,981.21
2023-02-22T11:09:07.970Z,981.18
2023-02-22T11:10:07.987Z,981.19
2023-02-22T11:11:07.959Z,981.16
2023-02-22T11:12:07.982Z,981.24
2023-02-22T11:13:07.936Z,981.14
2023-02-22T11:14:07.943Z,981.12
2023-02-22T11:15:07.941Z,981.10
2023-02-22T11:16:07.914Z,981.17
2023-02-22T11:17:07.917Z,981.09
2023-02-22T11:18:08.902Z,981.13
2023-02-22T11:19:07.936Z,981.12
2023-02-22T11:20:07.873Z,981.15
2023-02-22T11:21:07.866Z,981.16
2023-02-22T11:22:07.852Z,981.10
2023-02-22T11:23:07.823Z,981.09
2023-02-22T11:24:07.841Z,981.14
2023-02-22T11:25:07.802Z,981.06
2023-02-22T11:26:07.824Z,981.11
2023-02-22T11:27:07.815Z,981.07
2023-02-22T11:28:07.815Z,981.06
2023-02-22T11:29:07.764Z,981.10
2023-02-22T11:30:07.827Z,981.07
2023-02-22T11:31:07.885Z,981.03
2023-02-22T11:32:07.745Z,981.04
2023-02-22T11:33:07.731Z,980.98
2023-02-22T11:34:07.716Z,980.98
2023-02-22T11:35:09.466Z,981.00
2023-02-22T11:36:07.695Z,980.99
2023-02-22T11:37:07.674Z,980.91
2023-02-22T11:38:07.683Z,980.91
2023-02-22T11:39:07.727Z,980.96
2023-02-22T11:40:07.654Z,980.94
2023-02-22T11:41:07.623Z,980.91
2023-02-22T11:42:07.637Z,980.96
2023-02-22T11:43:07.615Z,980.98
2023-02-22T11:44:07.610Z,980.93
2023-02-22T11:45:07.590Z,980.95
2023-02-22T11:46:07.632Z,980.84
2023-02-22T11:47:07.576Z,980.75
2023-02-22T11:48:07.555Z,980.78
2023-02-22T11:49:07.548Z,980.80
2023-02-22T11:50:07.533Z,980.81
2023-02-22T11:51:07.527Z,980.75
2023-02-22T11:52:07.545Z,980.81
2023-02-22T11:53:07.508Z,980.74
2023-02-22T11:54:07.495Z,980.76
2023-02-22T11:55:07.478Z,980.84
2023-02-22T11:56:07.512Z,980.69
2023-02-22T11:57:07.475Z,980.76
2023-02-22T11:58:07.474Z,980.70
2023-02-22T11:59:07.438Z,980.69
2023-02-22T12:00:07.496Z,980.71
2023-02-22T12:01:07.442Z,980.67
2023-02-22T12:02:07.411Z,980.67
2023-02-22T12:03:07.517Z,980.63
2023-02-22T12:04:07.500Z,980.70
2023-02-22T12:05:08.385Z,980.58
2023-02-22T12:06:07.427Z,980.55
2023-02-22T12:07:07.376Z,980.54
2023-02-22T12:08:18.878Z,980.55
2023-02-22T12:09:08.367Z,980.54
2023-02-22T12:10:07.327Z,980.51
2023-02-22T12:11:07.309Z,980.46
2023-02-22T12:12:07.298Z,980.48
2023-02-22T12:13:07.293Z,980.47
2023-02-22T12:14:07.269Z,980.43
2023-02-22T12:15:07.288Z,980.48
2023-02-22T12:16:07.318Z,980.39
2023-02-22T12:17:07.256Z,980.42
2023-02-22T12:18:07.238Z,980.49
2023-02-22T12:19:07.285Z,980.46
2023-02-22T12:20:07.226Z,980.45
2023-02-22T12:21:07.222Z,980.43
2023-02-22T12:22:07.193Z,980.38
2023-02-22T12:23:07.444Z,980.42
2023-02-22T12:24:07.162Z,980.34
2023-02-22T12:25:09.815Z,980.34
2023-02-22T12:26:07.201Z,980.42
2023-02-22T12:27:07.360Z,980.34
2023-02-22T12:28:19.026Z,980.41